createdAt,value
2019-01-13T00:03:25.547Z,1.40
2019-01-13T00:08:30.274Z,1.63
2019-01-13T00:13:34.928Z,1.80
2019-01-13T00:18:39.665Z,1.40
2019-01-13T00:23:44.321Z,1.30
2019-01-13T00:28:49.016Z,1.10
2019-01-13T00:33:54.039Z,1.50
2019-01-13T00:38:58.704Z,1.80
2019-01-13T00:44:03.556Z,1.40
2019-01-13T00:49:09.184Z,1.70
2019-01-13T00:54:13.888Z,1.70
2019-01-13T00:59:18.627Z,1.20
2019-01-13T01:04:23.295Z,1.53
2019-01-13T01:09:28.039Z,1.43
2019-01-13T01:14:32.781Z,0.90
2019-01-13T01:19:37.762Z,1.30
2019-01-13T01:24:42.414Z,1.17
2019-01-13T01:29:47.078Z,0.90
2019-01-13T01:34:51.764Z,1.00
2019-01-13T01:39:56.445Z,0.93
2019-01-13T01:45:01.534Z,0.80
2019-01-13T01:50:07.189Z,0.93
2019-01-13T01:55:14.600Z,0.60
2019-01-13T02:00:23.733Z,1.00
2019-01-13T02:05:28.454Z,0.93
2019-01-13T02:10:33.125Z,0.90
2019-01-13T02:15:37.859Z,0.80
2019-01-13T02:20:42.581Z,1.00
2019-01-13T02:25:47.369Z,1.00
2019-01-13T02:30:52.373Z,0.97
2019-01-13T02:35:57.038Z,1.00
2019-01-13T02:41:01.706Z,0.97
2019-01-13T02:46:06.435Z,1.13
2019-01-13T02:51:11.118Z,1.02
2019-01-13T02:56:16.023Z,0.90
2019-01-13T03:01:20.696Z,1.10
2019-01-13T03:06:25.357Z,1.03
2019-01-13T03:11:30.080Z,1.30
2019-01-13T03:16:34.729Z,1.03
2019-01-13T03:21:39.641Z,1.20
2019-01-13T03:26:44.301Z,1.33
2019-01-13T03:31:48.973Z,0.90
2019-01-13T03:36:53.723Z,1.17
2019-01-13T03:41:58.448Z,1.30
2019-01-13T03:47:03.200Z,1.30
2019-01-13T03:52:07.863Z,1.10
2019-01-13T03:57:12.552Z,0.97
2019-01-13T04:02:17.464Z,1.10
2019-01-13T04:07:22.131Z,1.30
2019-01-13T04:12:26.792Z,1.20
2019-01-13T04:17:31.539Z,1.20
2019-01-13T04:22:36.243Z,0.90
2019-01-13T04:27:40.892Z,1.30
2019-01-13T04:32:45.529Z,1.20
2019-01-13T04:37:50.303Z,1.30
2019-01-13T04:42:55.101Z,1.10
2019-01-13T04:47:59.884Z,1.10
2019-01-13T04:53:04.910Z,1.13
2019-01-13T04:58:09.526Z,1.20
2019-01-13T05:03:14.213Z,1.40
2019-01-13T05:08:18.929Z,1.30
2019-01-13T05:13:23.589Z,1.47
2019-01-13T05:18:28.293Z,1.13
2019-01-13T05:23:32.944Z,1.10
2019-01-13T05:28:37.642Z,1.15
2019-01-13T05:33:42.300Z,1.10
2019-01-13T05:38:47.521Z,1.07
2019-01-13T05:43:52.185Z,0.90
2019-01-13T05:48:56.915Z,1.23
2019-01-13T05:54:01.931Z,1.00
2019-01-13T05:59:06.586Z,0.83
2019-01-13T06:04:11.500Z,1.05
2019-01-13T06:09:16.179Z,1.17
2019-01-13T06:14:20.849Z,1.10
2019-01-13T06:19:25.513Z,1.30
2019-01-13T06:24:30.421Z,0.90
2019-01-13T06:29:35.428Z,0.93
2019-01-13T06:34:40.116Z,1.10
2019-01-13T06:39:44.853Z,1.20
2019-01-13T06:44:49.523Z,1.40
2019-01-13T06:49:54.274Z,1.20
2019-01-13T06:54:58.938Z,1.47
2019-01-13T07:00:08.500Z,1.50
2019-01-13T07:05:13.393Z,1.70
2019-01-13T07:10:18.221Z,1.10
2019-01-13T07:15:23.102Z,1.30
2019-01-13T07:20:27.768Z,1.10
2019-01-13T07:25:32.425Z,1.10
2019-01-13T07:30:37.472Z,1.40
2019-01-13T07:35:42.131Z,1.70
2019-01-13T07:40:46.857Z,1.30
2019-01-13T07:45:51.806Z,1.50
2019-01-13T07:50:56.476Z,1.10
2019-01-13T07:56:01.166Z,1.30
2019-01-13T08:01:06.536Z,1.63
2019-01-13T08:06:11.199Z,1.42
2019-01-13T08:11:15.868Z,1.30
2019-01-13T08:16:20.520Z,1.00
2019-01-13T08:21:25.181Z,1.20
2019-01-13T08:26:29.862Z,1.40
2019-01-13T08:31:34.512Z,2.00
2019-01-13T08:36:39.569Z,1.60
2019-01-13T08:41:44.244Z,1.87
2019-01-13T08:46:48.905Z,1.90
2019-01-13T08:51:53.574Z,1.60
2019-01-13T08:56:58.297Z,2.50
2019-01-13T09:02:03.109Z,1.80
2019-01-13T09:07:07.811Z,1.83
2019-01-13T09:12:12.507Z,2.50
2019-01-13T09:17:17.189Z,2.70
2019-01-13T09:22:21.867Z,2.72
2019-01-13T09:27:26.542Z,2.60
2019-01-13T09:32:31.257Z,2.33
2019-01-13T09:37:36.014Z,2.47
2019-01-13T09:42:40.681Z,2.23
2019-01-13T09:47:45.783Z,2.33
2019-01-13T09:52:50.880Z,2.17
2019-01-13T09:57:55.725Z,2.33
2019-01-13T10:03:00.495Z,2.17
2019-01-13T10:08:05.514Z,2.00
2019-01-13T10:13:10.189Z,2.10
2019-01-13T10:18:14.967Z,1.87
2019-01-13T10:23:19.800Z,1.77
2019-01-13T10:28:24.489Z,2.00
2019-01-13T10:33:29.296Z,1.53
2019-01-13T10:38:34.054Z,2.03
2019-01-13T10:43:38.732Z,1.80
2019-01-13T10:48:43.891Z,1.83
2019-01-13T10:53:48.580Z,1.87
2019-01-13T10:58:53.289Z,1.43
2019-01-13T11:03:58.052Z,1.70
2019-01-13T11:09:04.345Z,1.43
2019-01-13T11:14:09.022Z,1.60
2019-01-13T11:19:13.724Z,1.30
2019-01-13T11:24:18.463Z,1.60
2019-01-13T11:29:23.113Z,1.17
2019-01-13T11:34:27.873Z,1.10
2019-01-13T11:39:32.566Z,1.40
2019-01-13T11:44:37.309Z,1.30
2019-01-13T11:49:42.346Z,1.23
2019-01-13T11:54:47.023Z,1.00
2019-01-13T11:59:51.784Z,0.90
2019-01-13T12:04:57.415Z,0.90
2019-01-13T12:10:02.449Z,1.17
2019-01-13T12:15:09.900Z,1.00
2019-01-13T12:20:16.722Z,0.73
2019-01-13T12:25:22.259Z,0.80
2019-01-13T12:30:29.223Z,0.80
2019-01-13T12:35:34.034Z,0.80
2019-01-13T12:40:39.046Z,0.87
2019-01-13T12:45:43.871Z,0.80
2019-01-13T12:50:48.559Z,0.67
2019-01-13T12:55:53.326Z,0.80
2019-01-13T13:00:58.066Z,1.00
2019-01-13T13:06:04.792Z,1.00
2019-01-13T13:11:09.563Z,0.93
2019-01-13T13:16:14.256Z,1.20
2019-01-13T13:21:18.937Z,1.10
2019-01-13T13:26:23.627Z,1.07
2019-01-13T13:31:28.308Z,1.00
2019-01-13T13:36:33.041Z,1.20
2019-01-13T13:41:37.766Z,1.20
2019-01-13T13:46:42.490Z,1.30
2019-01-13T13:51:47.180Z,1.90
2019-01-13T13:56:51.879Z,1.50
2019-01-13T14:02:08.972Z,1.60
2019-01-13T14:07:13.581Z,1.47
2019-01-13T14:12:18.300Z,1.53
2019-01-13T14:17:22.984Z,1.20
2019-01-13T14:22:27.660Z,1.50
2019-01-13T14:27:32.379Z,1.67
2019-01-13T14:32:37.094Z,1.40
2019-01-13T14:37:41.839Z,1.60
2019-01-13T14:42:46.669Z,1.37
2019-01-13T14:47:51.358Z,1.50
2019-01-13T14:52:56.053Z,1.07
2019-01-13T14:58:00.842Z,1.30
2019-01-13T15:03:06.208Z,1.70
2019-01-13T15:08:11.022Z,1.50
2019-01-13T15:13:15.701Z,1.10
2019-01-13T15:18:20.482Z,1.20
2019-01-13T15:23:25.220Z,1.10
2019-01-13T15:28:29.915Z,1.13
2019-01-13T15:33:34.613Z,1.17
2019-01-13T15:38:39.385Z,1.40
2019-01-13T15:43:44.095Z,1.10
2019-01-13T15:48:48.787Z,1.00
2019-01-13T15:53:53.544Z,1.10
2019-01-13T15:58:58.255Z,1.17
2019-01-13T16:04:03.016Z,0.90
2019-01-13T16:09:09.447Z,1.20
2019-01-13T16:14:14.283Z,1.05
2019-01-13T16:19:19.005Z,0.98
2019-01-13T16:24:23.687Z,1.20
2019-01-13T16:29:28.379Z,1.40
2019-01-13T16:34:33.062Z,1.20
2019-01-13T16:39:37.868Z,1.07
2019-01-13T16:44:42.917Z,1.13
2019-01-13T16:49:47.666Z,1.33
2019-01-13T16:54:52.376Z,1.40
2019-01-13T16:59:57.228Z,1.10
2019-01-13T17:05:01.976Z,1.40
2019-01-13T17:10:10.665Z,1.13
2019-01-13T17:15:17.092Z,1.30
2019-01-13T17:20:22.752Z,1.52
2019-01-13T17:25:28.052Z,1.20
2019-01-13T17:30:34.698Z,1.30
2019-01-13T17:35:39.385Z,1.40
2019-01-13T17:40:44.044Z,1.40
2019-01-13T17:45:48.911Z,1.40
2019-01-13T17:50:53.913Z,1.20
2019-01-13T17:55:58.628Z,1.10
2019-01-13T18:01:16.093Z,1.00
2019-01-13T18:06:20.784Z,0.82
2019-01-13T18:11:25.557Z,3.00
2019-01-13T18:16:30.341Z,0.60
2019-01-13T18:21:35.042Z,0.60
2019-01-13T18:26:39.729Z,0.50
2019-01-13T18:31:44.502Z,0.70
2019-01-13T18:36:49.185Z,0.80
2019-01-13T18:41:53.885Z,0.60
2019-01-13T18:46:58.636Z,0.80
2019-01-13T18:52:03.317Z,0.80
2019-01-13T18:57:08.049Z,0.70
2019-01-13T19:02:12.740Z,0.63
2019-01-13T19:07:17.475Z,0.90
2019-01-13T19:12:22.202Z,0.97
2019-01-13T19:17:27.636Z,1.00
2019-01-13T19:22:33.897Z,0.90
2019-01-13T19:27:38.606Z,0.90
2019-01-13T19:32:43.501Z,1.40
2019-01-13T19:37:48.515Z,1.20
2019-01-13T19:42:53.542Z,1.50
2019-01-13T19:47:58.322Z,1.50
2019-01-13T19:53:03.041Z,1.10
2019-01-13T19:58:07.925Z,1.27
2019-01-13T20:03:12.613Z,1.47
2019-01-13T20:08:17.298Z,1.30
2019-01-13T20:13:22.010Z,1.37
2019-01-13T20:18:26.767Z,1.20
2019-01-13T20:23:49.522Z,1.43
2019-01-13T20:28:54.484Z,1.43
2019-01-13T20:33:59.188Z,1.77
2019-01-13T20:39:08.751Z,2.10
2019-01-13T20:44:13.408Z,1.30
2019-01-13T20:49:18.103Z,1.40
2019-01-13T20:54:22.824Z,1.80
2019-01-13T20:59:27.844Z,1.13
2019-01-13T21:04:32.542Z,1.60
2019-01-13T21:09:37.263Z,1.97
2019-01-13T21:14:42.027Z,1.30
2019-01-13T21:19:46.733Z,1.70
2019-01-13T21:24:51.453Z,2.27
2019-01-13T21:30:01.316Z,1.87
2019-01-13T21:35:02.542Z,1.53
2019-01-13T21:40:08.260Z,1.97
2019-01-13T21:45:15.000Z,1.92
2019-01-13T21:50:21.792Z,2.13
2019-01-13T21:55:26.569Z,2.20
2019-01-13T22:00:31.816Z,1.60
2019-01-13T22:05:41.054Z,1.50
2019-01-13T22:10:42.873Z,2.10
2019-01-13T22:15:47.552Z,2.70
2019-01-13T22:20:52.319Z,2.17
2019-01-13T22:25:58.091Z,2.00
2019-01-13T22:31:02.796Z,1.80
2019-01-13T22:36:07.527Z,1.83
2019-01-13T22:41:12.204Z,1.60
2019-01-13T22:46:16.903Z,1.43
2019-01-13T22:51:21.587Z,1.63
2019-01-13T22:56:26.347Z,1.40
2019-01-13T23:01:38.239Z,2.10
2019-01-13T23:06:42.977Z,2.07
2019-01-13T23:11:47.936Z,1.57
2019-01-13T23:16:52.701Z,1.33
2019-01-13T23:21:57.383Z,1.73
2019-01-13T23:27:02.033Z,1.80
2019-01-13T23:32:06.705Z,1.83
2019-01-13T23:37:11.447Z,1.67
2019-01-13T23:42:16.449Z,2.20
2019-01-13T23:47:21.274Z,1.57
2019-01-13T23:52:25.965Z,1.73
2019-01-13T23:57:30.726Z,2.17
